createdAt,value
2023-03-20T04:45:58.019Z,94.80
2023-03-20T04:48:25.057Z,94.80
2023-03-20T04:50:52.102Z,94.90
2023-03-20T04:53:19.342Z,94.70
2023-03-20T04:55:46.378Z,94.70
2023-03-20T04:58:13.593Z,94.60
2023-03-20T05:00:40.769Z,94.60
2023-03-20T05:03:07.788Z,94.50
2023-03-20T05:05:38.037Z,94.50
2023-03-20T05:08:06.053Z,94.40
2023-03-20T05:10:33.098Z,94.50
2023-03-20T05:13:00.038Z,94.60
2023-03-20T05:15:27.038Z,94.60
2023-03-20T05:17:54.852Z,94.60
2023-03-20T05:20:21.959Z,94.70
2023-03-20T05:22:50.561Z,94.70
2023-03-20T05:25:17.877Z,94.70
2023-03-20T05:27:46.150Z,94.80
2023-03-20T05:30:14.208Z,94.90
2023-03-20T05:32:42.105Z,95.00
2023-03-20T05:35:09.352Z,95.00
2023-03-20T05:37:37.032Z,95.00
2023-03-20T05:40:04.195Z,95.10
2023-03-20T05:42:31.230Z,95.00
2023-03-20T05:44:59.258Z,95.00
2023-03-20T05:47:26.407Z,95.00
2023-03-20T05:49:53.507Z,95.00
2023-03-20T05:52:20.706Z,95.00
2023-03-20T05:54:48.014Z,95.00
2023-03-20T05:57:15.876Z,95.00
2023-03-20T05:59:43.306Z,95.00
2023-03-20T06:02:10.303Z,95.10
2023-03-20T06:04:37.385Z,95.00
2023-03-20T06:07:04.630Z,95.10
2023-03-20T06:09:32.227Z,95.00
2023-03-20T06:11:59.361Z,94.90
2023-03-20T06:14:26.433Z,94.80
2023-03-20T06:16:54.059Z,94.80
2023-03-20T06:19:21.865Z,94.90
2023-03-20T06:21:49.317Z,94.80
2023-03-20T06:24:16.339Z,94.90
2023-03-20T06:26:43.302Z,95.10
2023-03-20T06:29:10.452Z,95.10
2023-03-20T06:31:37.487Z,95.00
2023-03-20T06:34:04.851Z,94.90
2023-03-20T06:36:32.246Z,94.90
2023-03-20T06:38:59.255Z,94.90
2023-03-20T06:41:34.093Z,94.90
2023-03-20T06:44:01.558Z,94.80
2023-03-20T06:46:28.484Z,94.60
2023-03-20T06:48:55.826Z,94.60
2023-03-20T06:51:22.760Z,94.60
2023-03-20T06:53:49.634Z,94.60
2023-03-20T06:56:16.987Z,94.70
2023-03-20T06:58:43.932Z,94.80
2023-03-20T07:01:15.747Z,94.90
2023-03-20T07:03:42.953Z,94.80
2023-03-20T07:06:12.303Z,94.90
2023-03-20T07:08:39.949Z,94.90
2023-03-20T07:11:07.060Z,94.90
2023-03-20T07:13:34.242Z,94.80
2023-03-20T07:16:04.914Z,94.80
2023-03-20T07:18:32.250Z,94.90
2023-03-20T07:21:03.370Z,94.90
2023-03-20T07:23:30.795Z,95.10
2023-03-20T07:25:58.811Z,95.10
2023-03-20T07:28:25.985Z,95.10
2023-03-20T07:30:52.898Z,95.00
2023-03-20T07:33:20.886Z,94.90
2023-03-20T07:35:51.994Z,95.00
2023-03-20T07:38:19.063Z,95.30
2023-03-20T07:40:46.090Z,95.30
2023-03-20T07:43:13.052Z,95.30
2023-03-20T07:45:40.152Z,95.40
2023-03-20T07:48:07.646Z,95.50
2023-03-20T07:50:34.608Z,95.60
2023-03-20T07:53:01.758Z,95.40
2023-03-20T07:55:28.715Z,95.20
2023-03-20T07:57:55.718Z,95.20
2023-03-20T08:00:22.798Z,95.20
2023-03-20T08:02:49.894Z,95.40
2023-03-20T08:05:16.899Z,95.40
2023-03-20T08:07:46.085Z,95.40
2023-03-20T08:10:13.120Z,95.30
2023-03-20T08:12:40.029Z,95.00
2023-03-20T08:15:07.842Z,95.20
2023-03-20T08:17:34.812Z,95.10
2023-03-20T08:20:01.880Z,95.30
2023-03-20T08:22:28.997Z,95.20
2023-03-20T08:24:55.931Z,95.00
2023-03-20T08:27:22.855Z,95.10
2023-03-20T08:29:49.843Z,95.00
2023-03-20T08:32:16.803Z,94.90
2023-03-20T08:34:43.741Z,95.10
2023-03-20T08:37:12.262Z,95.00
2023-03-20T08:39:39.559Z,95.20
2023-03-20T08:42:06.998Z,95.00
2023-03-20T08:44:33.933Z,94.90
2023-03-20T08:47:01.128Z,95.10
2023-03-20T08:49:28.087Z,95.00
2023-03-20T08:51:55.146Z,94.90
2023-03-20T08:54:22.039Z,94.70
2023-03-20T08:56:49.164Z,94.60
2023-03-20T08:59:16.305Z,94.70
2023-03-20T09:01:49.654Z,94.60
2023-03-20T09:04:17.618Z,94.90
2023-03-20T09:06:44.606Z,94.50
2023-03-20T09:09:15.562Z,94.20
2023-03-20T09:11:42.454Z,94.10
2023-03-20T09:14:09.704Z,94.30
2023-03-20T09:16:36.743Z,94.20
2023-03-20T09:19:03.996Z,94.00
2023-03-20T09:21:31.280Z,93.40
2023-03-20T09:23:58.275Z,92.70
2023-03-20T09:26:25.248Z,92.40
2023-03-20T09:28:52.214Z,91.70
2023-03-20T09:31:19.187Z,90.60
2023-03-20T09:33:46.086Z,91.20
2023-03-20T09:36:13.196Z,91.60
2023-03-20T09:38:42.003Z,90.40
2023-03-20T09:41:19.390Z,90.10
2023-03-20T09:43:49.122Z,89.20
2023-03-20T09:46:34.632Z,88.20
2023-03-20T09:49:22.177Z,88.70
2023-03-20T09:51:49.065Z,87.60
2023-03-20T09:54:15.980Z,86.80
2023-03-20T09:56:42.877Z,87.20
2023-03-20T09:59:14.310Z,87.50
2023-03-20T10:01:47.269Z,87.50
2023-03-20T10:04:14.382Z,86.40
2023-03-20T10:06:41.377Z,86.40
2023-03-20T10:09:20.232Z,86.50
2023-03-20T10:12:25.791Z,86.40
2023-03-20T10:14:58.481Z,87.30
2023-03-20T10:17:28.403Z,86.90
2023-03-20T10:20:00.977Z,86.80
2023-03-20T10:22:39.446Z,86.40
2023-03-20T10:25:08.994Z,84.40
2023-03-20T10:27:42.076Z,83.90
2023-03-20T10:30:22.934Z,85.40
2023-03-20T10:33:08.395Z,85.40
2023-03-20T10:35:43.451Z,84.80
2023-03-20T10:38:15.066Z,84.20
2023-03-20T10:40:42.507Z,84.40
2023-03-20T10:43:20.413Z,84.50
2023-03-20T10:45:56.735Z,84.40
2023-03-20T10:48:26.985Z,84.90
2023-03-20T10:50:55.419Z,86.00
2023-03-20T10:53:34.414Z,85.10
2023-03-20T10:56:15.145Z,85.20
2023-03-20T10:58:46.866Z,85.60
2023-03-20T11:01:14.403Z,85.70
2023-03-20T11:03:41.447Z,85.30
2023-03-20T11:06:22.834Z,84.90
2023-03-20T11:08:51.235Z,84.10
2023-03-20T11:11:21.875Z,84.60
2023-03-20T11:13:49.275Z,84.20
2023-03-20T11:16:19.570Z,84.20
2023-03-20T11:18:49.092Z,84.40
2023-03-20T11:21:20.484Z,83.70
2023-03-20T11:23:47.484Z,84.70
2023-03-20T11:26:18.717Z,84.60
2023-03-20T11:28:51.020Z,83.90
2023-03-20T11:31:26.042Z,83.80
2023-03-20T11:34:13.250Z,83.90
2023-03-20T11:36:48.833Z,84.10
2023-03-20T11:39:27.158Z,83.70
2023-03-20T11:41:55.624Z,83.50
2023-03-20T11:44:23.440Z,83.30
2023-03-20T11:47:11.405Z,83.30
2023-03-20T11:49:50.271Z,84.20
2023-03-20T11:52:20.774Z,83.60
2023-03-20T11:54:50.240Z,83.00
2023-03-20T11:57:26.024Z,83.20
2023-03-20T11:59:53.374Z,83.50
2023-03-20T12:02:22.833Z,84.20
2023-03-20T12:04:49.762Z,84.90
2023-03-20T12:07:19.414Z,84.80
2023-03-20T12:09:52.218Z,84.60
2023-03-20T12:12:34.205Z,84.20
2023-03-20T12:15:15.360Z,84.60
2023-03-20T12:18:00.887Z,83.90
2023-03-20T12:20:33.818Z,83.80
2023-03-20T12:23:11.012Z,84.30
2023-03-20T12:25:41.204Z,84.00
2023-03-20T12:28:14.787Z,83.60
2023-03-20T12:30:48.700Z,83.60
2023-03-20T12:33:20.515Z,84.10
2023-03-20T12:35:48.817Z,83.90
2023-03-20T12:38:28.249Z,83.80
2023-03-20T12:40:58.440Z,84.40
2023-03-20T12:43:35.257Z,83.80
2023-03-20T12:46:25.603Z,83.90
2023-03-20T12:48:52.566Z,83.40
2023-03-20T12:51:25.914Z,83.50
2023-03-20T12:54:11.516Z,83.70
2023-03-20T12:56:56.918Z,83.50
2023-03-20T12:59:23.779Z,83.80
2023-03-20T13:01:55.944Z,85.00
2023-03-20T13:04:32.216Z,85.80
2023-03-20T13:07:02.919Z,85.80
2023-03-20T13:09:32.583Z,85.80
2023-03-20T13:12:18.160Z,83.90
2023-03-20T13:14:51.060Z,82.20
2023-03-20T13:17:38.312Z,82.20
2023-03-20T13:20:23.890Z,84.20
2023-03-20T13:23:03.382Z,84.70
2023-03-20T13:25:33.169Z,83.90
2023-03-20T13:28:06.863Z,84.30
2023-03-20T13:30:40.904Z,83.60
2023-03-20T13:33:16.626Z,82.50
2023-03-20T13:35:47.953Z,82.90
2023-03-20T13:38:17.467Z,82.90
2023-03-20T13:40:46.050Z,82.20
2023-03-20T13:43:12.992Z,82.10
2023-03-20T13:45:41.302Z,81.60
2023-03-20T13:48:19.854Z,81.40
2023-03-20T13:50:54.029Z,81.60
2023-03-20T13:53:24.343Z,81.00
2023-03-20T13:55:51.365Z,80.70
2023-03-20T13:58:35.232Z,81.50
2023-03-20T14:01:22.481Z,81.30
2023-03-20T14:03:49.731Z,81.60
2023-03-20T14:06:39.414Z,81.30
2023-03-20T14:09:24.071Z,81.20
2023-03-20T14:11:52.940Z,81.60
2023-03-20T14:14:26.263Z,81.70
2023-03-20T14:17:19.255Z,81.70
2023-03-20T14:19:46.614Z,81.70
2023-03-20T14:22:18.220Z,82.30
2023-03-20T14:24:55.966Z,82.00
2023-03-20T14:27:36.818Z,81.30
2023-03-20T14:30:42.293Z,81.10
2023-03-20T14:33:15.406Z,81.80
2023-03-20T14:36:09.987Z,80.80
2023-03-20T14:38:39.721Z,80.70
2023-03-20T14:41:16.908Z,79.60
2023-03-20T14:44:02.374Z,80.10
2023-03-20T14:46:40.361Z,81.20
2023-03-20T14:49:19.900Z,80.50
2023-03-20T14:51:48.096Z,80.00
2023-03-20T14:54:21.184Z,79.80
2023-03-20T14:56:48.902Z,80.90
2023-03-20T14:59:16.637Z,79.50
2023-03-20T15:01:45.952Z,79.40
2023-03-20T15:04:15.755Z,80.00
2023-03-20T15:06:45.500Z,79.70
2023-03-20T15:09:12.704Z,79.80
2023-03-20T15:11:41.644Z,80.20
2023-03-20T15:14:09.471Z,80.20
2023-03-20T15:16:37.593Z,80.40
2023-03-20T15:19:09.030Z,79.90
2023-03-20T15:21:41.155Z,79.70
2023-03-20T15:24:08.214Z,79.90
2023-03-20T15:26:35.779Z,79.50
2023-03-20T15:29:07.125Z,79.30
2023-03-20T15:31:35.683Z,79.20
2023-03-20T15:34:04.604Z,79.90
2023-03-20T15:36:35.346Z,80.30
2023-03-20T15:39:11.193Z,79.70
2023-03-20T15:41:38.254Z,79.40
2023-03-20T15:44:11.151Z,80.10
2023-03-20T15:46:38.061Z,79.20
2023-03-20T15:49:05.190Z,80.20
2023-03-20T15:51:33.093Z,80.00
2023-03-20T15:54:00.153Z,80.10
2023-03-20T15:56:27.612Z,80.30
2023-03-20T15:58:56.536Z,80.90
2023-03-20T16:01:24.753Z,80.10
2023-03-20T16:03:52.671Z,80.20
2023-03-20T16:06:21.358Z,80.20
2023-03-20T16:08:58.430Z,80.30
2023-03-20T16:11:25.528Z,80.50
2023-03-20T16:13:53.199Z,80.10
2023-03-20T16:16:22.183Z,80.00
2023-03-20T16:18:49.314Z,80.10
2023-03-20T16:21:22.027Z,80.50
2023-03-20T16:23:51.851Z,80.90
2023-03-20T16:26:20.515Z,80.60
2023-03-20T16:28:49.427Z,80.50
2023-03-20T16:31:19.277Z,81.20
2023-03-20T16:33:46.961Z,80.60
2023-03-20T16:36:20.749Z,80.50
2023-03-20T16:38:57.937Z,80.50
2023-03-20T16:41:31.657Z,80.60
2023-03-20T16:43:58.591Z,80.70
2023-03-20T16:46:26.791Z,81.20
2023-03-20T16:48:56.941Z,81.10
2023-03-20T16:51:25.842Z,81.40
2023-03-20T16:54:01.284Z,81.00
2023-03-20T16:56:32.610Z,80.60
2023-03-20T16:59:05.740Z,81.00
2023-03-20T17:01:33.176Z,81.20
2023-03-20T17:04:15.490Z,80.80
2023-03-20T17:06:57.993Z,81.10
2023-03-20T17:09:26.712Z,81.70
2023-03-20T17:12:11.458Z,82.10
2023-03-20T17:14:40.348Z,82.10
2023-03-20T17:17:13.859Z,82.10
2023-03-20T17:19:40.832Z,82.40
2023-03-20T17:22:15.059Z,82.40
2023-03-20T17:24:42.040Z,82.30
2023-03-20T17:27:11.451Z,83.00
2023-03-20T17:29:38.814Z,82.50
2023-03-20T17:32:16.704Z,83.40
2023-03-20T17:34:43.810Z,83.60
2023-03-20T17:37:17.003Z,83.40
2023-03-20T17:39:43.958Z,82.90
2023-03-20T17:42:17.365Z,83.00
2023-03-20T17:44:44.587Z,83.10
2023-03-20T17:47:15.965Z,83.90
2023-03-20T17:49:43.170Z,83.50
2023-03-20T17:52:14.803Z,83.40
2023-03-20T17:54:42.321Z,83.70
2023-03-20T17:57:31.234Z,83.80
2023-03-20T17:59:58.345Z,83.70
2023-03-20T18:02:25.562Z,83.70
2023-03-20T18:04:52.916Z,83.70
2023-03-20T18:07:20.105Z,83.50
2023-03-20T18:09:47.505Z,84.10
2023-03-20T18:12:16.551Z,84.40
2023-03-20T18:14:43.845Z,84.00
2023-03-20T18:17:15.008Z,84.20
2023-03-20T18:19:42.094Z,84.20
2023-03-20T18:22:09.284Z,84.20
2023-03-20T18:24:36.675Z,83.30
2023-03-20T18:27:03.696Z,82.90
2023-03-20T18:29:30.971Z,83.40
2023-03-20T18:31:57.966Z,83.10
2023-03-20T18:34:24.976Z,83.40
2023-03-20T18:36:52.707Z,84.10
2023-03-20T18:39:20.816Z,84.80
2023-03-20T18:41:47.918Z,84.60
2023-03-20T18:44:14.817Z,84.70
2023-03-20T18:46:42.128Z,85.00
2023-03-20T18:49:18.428Z,85.00
2023-03-20T18:51:45.510Z,85.20
2023-03-20T18:54:12.737Z,85.40
2023-03-20T18:56:40.602Z,85.60
2023-03-20T18:59:10.536Z,85.60
2023-03-20T19:01:37.553Z,85.50
2023-03-20T19:04:04.576Z,85.60
2023-03-20T19:06:32.214Z,85.50
2023-03-20T19:08:59.377Z,85.70
2023-03-20T19:11:26.355Z,85.90
2023-03-20T19:13:53.768Z,86.10
2023-03-20T19:16:20.777Z,86.30
2023-03-20T19:18:49.854Z,86.40
2023-03-20T19:21:17.052Z,86.70
2023-03-20T19:23:44.418Z,86.90
2023-03-20T19:26:18.162Z,87.20
2023-03-20T19:28:45.661Z,87.30
2023-03-20T19:31:12.750Z,87.20
2023-03-20T19:33:39.914Z,87.30
2023-03-20T19:36:07.989Z,87.40
2023-03-20T19:38:35.335Z,87.10
2023-03-20T19:41:03.829Z,87.00
2023-03-20T19:43:30.863Z,87.00
2023-03-20T19:45:59.193Z,86.80
2023-03-20T19:48:27.631Z,87.00
2023-03-20T19:50:55.570Z,87.00
2023-03-20T19:53:24.919Z,87.40
2023-03-20T19:55:53.021Z,87.80
2023-03-20T19:58:20.317Z,87.80
2023-03-20T20:00:58.915Z,87.30
2023-03-20T20:03:26.967Z,87.30
2023-03-20T20:05:54.212Z,87.50
2023-03-20T20:08:39.475Z,87.80
2023-03-20T20:11:09.783Z,88.10
2023-03-20T20:13:47.109Z,88.10
2023-03-20T20:16:23.555Z,88.40
2023-03-20T20:18:50.813Z,88.40
2023-03-20T20:22:09.964Z,88.70
2023-03-20T20:24:04.672Z,88.50
2023-03-20T20:26:38.491Z,88.70
2023-03-20T20:29:07.314Z,88.90
2023-03-20T20:31:34.259Z,89.10
2023-03-20T20:34:48.880Z,88.70
2023-03-20T20:37:40.676Z,88.80
2023-03-20T20:39:35.450Z,89.30
2023-03-20T20:42:02.484Z,89.30
2023-03-20T20:44:29.366Z,88.80
2023-03-20T20:46:56.557Z,89.10
2023-03-20T20:49:23.492Z,88.90
2023-03-20T20:51:50.508Z,88.60
2023-03-20T20:54:17.662Z,88.60
2023-03-20T20:56:44.661Z,88.90
2023-03-20T20:59:11.687Z,89.10
2023-03-20T21:01:38.720Z,89.20
2023-03-20T21:04:05.913Z,89.20
2023-03-20T21:07:05.808Z,89.20
2023-03-20T21:09:19.663Z,89.70
2023-03-20T21:11:46.723Z,89.70
2023-03-20T21:14:13.963Z,89.80
2023-03-20T21:16:40.928Z,89.90
2023-03-20T21:19:07.858Z,89.60
2023-03-20T21:21:35.643Z,89.60
2023-03-20T21:24:02.771Z,89.70
2023-03-20T21:26:29.768Z,89.90
2023-03-20T21:28:56.744Z,90.00
2023-03-20T21:31:28.041Z,90.10
2023-03-20T21:33:56.464Z,90.10
2023-03-20T21:36:23.775Z,90.20
2023-03-20T21:39:07.201Z,90.10
2023-03-20T21:41:36.360Z,90.00
2023-03-20T21:44:04.041Z,90.00
2023-03-20T21:47:22.762Z,90.00
2023-03-20T22:03:33.709Z,90.40
2023-03-20T22:09:45.521Z,90.30
2023-03-20T22:15:11.965Z,90.30
2023-03-20T22:23:30.892Z,90.50
2023-03-20T22:32:02.310Z,90.80
2023-03-20T22:45:09.745Z,90.90
2023-03-20T22:47:37.266Z,90.90
2023-03-20T22:50:04.665Z,90.90
2023-03-20T22:52:47.681Z,90.90
2023-03-20T22:55:16.436Z,91.00
2023-03-20T22:57:53.046Z,91.00
2023-03-20T23:00:30.492Z,91.10
2023-03-20T23:03:11.295Z,91.10
2023-03-20T23:05:42.545Z,91.20
2023-03-20T23:08:11.017Z,91.20
2023-03-20T23:10:41.744Z,91.20
2023-03-20T23:13:08.692Z,91.20
2023-03-20T23:15:35.894Z,91.20
2023-03-20T23:18:03.098Z,91.20
2023-03-20T23:20:30.200Z,91.50
2023-03-20T23:22:57.077Z,91.50
2023-03-20T23:25:38.144Z,91.50
2023-03-20T23:28:06.938Z,91.50
2023-03-20T23:30:44.279Z,91.60
2023-03-20T23:33:15.527Z,91.60
2023-03-20T23:35:42.447Z,91.60
2023-03-20T23:38:09.434Z,91.60
2023-03-20T23:40:36.812Z,91.70
2023-03-20T23:43:03.910Z,91.60
2023-03-20T23:45:30.949Z,91.60
2023-03-20T23:47:57.875Z,91.70
2023-03-20T23:50:30.373Z,91.80
2023-03-20T23:53:17.517Z,91.80
2023-03-20T23:55:46.964Z,91.90
2023-03-20T23:58:14.262Z,91.90
